sensor_id;sensor_type;location;lat;lon;timestamp;P1;durP1;ratioP1;P2;durP2;ratioP2
14276;SDS011;7222;57.346;12.150;2022-08-04T00:00:50;7.87;;;4.90;;
14276;SDS011;7222;57.346;12.150;2022-08-04T00:03:28;8.50;;;4.67;;
14276;SDS011;7222;57.346;12.150;2022-08-04T00:06:08;6.27;;;4.53;;
14276;SDS011;7222;57.346;12.150;2022-08-04T00:08:42;7.63;;;4.93;;
14276;SDS011;7222;57.346;12.150;2022-08-04T00:11:13;11.53;;;5.17;;
14276;SDS011;7222;57.346;12.150;2022-08-04T00:13:46;11.13;;;6.00;;
14276;SDS011;7222;57.346;12.150;2022-08-04T00:16:16;8.63;;;4.63;;
14276;SDS011;7222;57.346;12.150;2022-08-04T00:18:47;10.37;;;5.73;;
14276;SDS011;7222;57.346;12.150;2022-08-04T00:21:23;7.37;;;4.30;;
14276;SDS011;7222;57.346;12.150;2022-08-04T00:23:53;7.47;;;4.73;;
14276;SDS011;7222;57.346;12.150;2022-08-04T00:26:21;12.47;;;5.30;;
14276;SDS011;7222;57.346;12.150;2022-08-04T00:28:49;9.57;;;5.07;;
14276;SDS011;7222;57.346;12.150;2022-08-04T00:31:16;11.87;;;6.03;;
14276;SDS011;7222;57.346;12.150;2022-08-04T00:33:45;9.67;;;4.80;;
14276;SDS011;7222;57.346;12.150;2022-08-04T00:36:13;10.93;;;5.43;;
14276;SDS011;7222;57.346;12.150;2022-08-04T00:38:43;8.00;;;5.27;;
14276;SDS011;7222;57.346;12.150;2022-08-04T00:41:14;12.10;;;6.03;;
14276;SDS011;7222;57.346;12.150;2022-08-04T00:43:50;12.47;;;5.10;;
14276;SDS011;7222;57.346;12.150;2022-08-04T00:49:32;13.63;;;5.93;;
14276;SDS011;7222;57.346;12.150;2022-08-04T00:52:27;9.83;;;5.17;;
14276;SDS011;7222;57.346;12.150;2022-08-04T00:55:04;12.07;;;5.33;;
14276;SDS011;7222;57.346;12.150;2022-08-04T00:57:54;9.43;;;4.40;;
14276;SDS011;7222;57.346;12.150;2022-08-04T01:00:50;10.37;;;4.53;;
14276;SDS011;7222;57.346;12.150;2022-08-04T01:03:28;10.97;;;5.47;;
14276;SDS011;7222;57.346;12.150;2022-08-04T01:06:15;9.90;;;5.30;;
14276;SDS011;7222;57.346;12.150;2022-08-04T01:08:54;10.30;;;5.67;;
14276;SDS011;7222;57.346;12.150;2022-08-04T01:11:40;7.97;;;4.60;;
14276;SDS011;7222;57.346;12.150;2022-08-04T01:14:42;7.17;;;5.17;;
14276;SDS011;7222;57.346;12.150;2022-08-04T01:17:19;25.90;;;7.63;;
14276;SDS011;7222;57.346;12.150;2022-08-04T01:19:55;11.83;;;4.80;;
14276;SDS011;7222;57.346;12.150;2022-08-04T01:31:37;9.30;;;4.67;;
14276;SDS011;7222;57.346;12.150;2022-08-04T01:34:12;9.87;;;5.10;;
14276;SDS011;7222;57.346;12.150;2022-08-04T01:36:41;10.90;;;5.80;;
14276;SDS011;7222;57.346;12.150;2022-08-04T01:39:12;5.40;;;4.87;;
14276;SDS011;7222;57.346;12.150;2022-08-04T01:41:57;8.57;;;5.17;;
14276;SDS011;7222;57.346;12.150;2022-08-04T01:44:27;9.43;;;5.03;;
14276;SDS011;7222;57.346;12.150;2022-08-04T01:46:57;6.40;;;4.63;;
14276;SDS011;7222;57.346;12.150;2022-08-04T01:49:27;9.47;;;5.60;;
14276;SDS011;7222;57.346;12.150;2022-08-04T01:51:58;7.40;;;5.00;;
14276;SDS011;7222;57.346;12.150;2022-08-04T01:54:27;7.70;;;4.93;;
14276;SDS011;7222;57.346;12.150;2022-08-04T01:56:57;7.73;;;4.10;;
14276;SDS011;7222;57.346;12.150;2022-08-04T01:59:25;7.53;;;4.93;;
14276;SDS011;7222;57.346;12.150;2022-08-04T02:01:58;8.70;;;4.57;;
14276;SDS011;7222;57.346;12.150;2022-08-04T02:04:25;7.00;;;4.50;;
14276;SDS011;7222;57.346;12.150;2022-08-04T02:06:56;9.83;;;5.23;;
14276;SDS011;7222;57.346;12.150;2022-08-04T02:09:37;7.57;;;5.00;;
14276;SDS011;7222;57.346;12.150;2022-08-04T02:12:08;5.80;;;4.30;;
14276;SDS011;7222;57.346;12.150;2022-08-04T02:14:44;8.77;;;4.97;;
14276;SDS011;7222;57.346;12.150;2022-08-04T02:17:21;11.87;;;5.80;;
14276;SDS011;7222;57.346;12.150;2022-08-04T02:19:58;6.87;;;5.30;;
14276;SDS011;7222;57.346;12.150;2022-08-04T02:22:30;9.20;;;5.30;;
14276;SDS011;7222;57.346;12.150;2022-08-04T02:25:03;8.13;;;4.37;;
14276;SDS011;7222;57.346;12.150;2022-08-04T02:27:36;7.73;;;4.33;;
14276;SDS011;7222;57.346;12.150;2022-08-04T02:30:16;9.87;;;5.60;;
14276;SDS011;7222;57.346;12.150;2022-08-04T02:32:47;5.57;;;3.80;;
14276;SDS011;7222;57.346;12.150;2022-08-04T02:35:19;7.87;;;4.30;;
14276;SDS011;7222;57.346;12.150;2022-08-04T02:37:53;7.97;;;3.87;;
14276;SDS011;7222;57.346;12.150;2022-08-04T02:40:26;6.03;;;3.53;;
14276;SDS011;7222;57.346;12.150;2022-08-04T02:42:56;6.67;;;4.20;;
14276;SDS011;7222;57.346;12.150;2022-08-04T02:45:24;7.03;;;3.63;;
14276;SDS011;7222;57.346;12.150;2022-08-04T02:47:53;4.07;;;3.67;;
14276;SDS011;7222;57.346;12.150;2022-08-04T02:50:22;5.53;;;3.97;;
14276;SDS011;7222;57.346;12.150;2022-08-04T02:52:51;5.90;;;3.70;;
14276;SDS011;7222;57.346;12.150;2022-08-04T02:55:21;6.70;;;3.60;;
14276;SDS011;7222;57.346;12.150;2022-08-04T02:57:50;5.57;;;3.40;;
14276;SDS011;7222;57.346;12.150;2022-08-04T03:00:19;5.27;;;3.80;;
14276;SDS011;7222;57.346;12.150;2022-08-04T03:02:54;3.83;;;3.10;;
14276;SDS011;7222;57.346;12.150;2022-08-04T03:05:38;6.20;;;3.77;;
14276;SDS011;7222;57.346;12.150;2022-08-04T03:08:25;4.67;;;3.03;;
14276;SDS011;7222;57.346;12.150;2022-08-04T03:14:29;6.13;;;3.60;;
14276;SDS011;7222;57.346;12.150;2022-08-04T03:17:33;6.73;;;4.27;;
14276;SDS011;7222;57.346;12.150;2022-08-04T03:23:38;7.43;;;4.03;;
14276;SDS011;7222;57.346;12.150;2022-08-04T03:26:42;5.30;;;4.70;;
14276;SDS011;7222;57.346;12.150;2022-08-04T03:42:07;3.87;;;3.10;;
14276;SDS011;7222;57.346;12.150;2022-08-04T03:45:00;6.10;;;3.50;;
14276;SDS011;7222;57.346;12.150;2022-08-04T03:48:01;4.30;;;3.20;;
14276;SDS011;7222;57.346;12.150;2022-08-04T03:53:47;5.83;;;3.93;;
14276;SDS011;7222;57.346;12.150;2022-08-04T03:56:35;5.60;;;4.57;;
14276;SDS011;7222;57.346;12.150;2022-08-04T03:59:40;7.73;;;5.10;;
14276;SDS011;7222;57.346;12.150;2022-08-04T04:08:37;6.93;;;6.03;;
14276;SDS011;7222;57.346;12.150;2022-08-04T04:14:17;3.50;;;3.20;;
14276;SDS011;7222;57.346;12.150;2022-08-04T04:17:03;8.53;;;4.40;;
14276;SDS011;7222;57.346;12.150;2022-08-04T04:25:30;7.50;;;5.63;;
14276;SDS011;7222;57.346;12.150;2022-08-04T04:31:10;8.47;;;5.90;;
14276;SDS011;7222;57.346;12.150;2022-08-04T04:33:59;9.47;;;6.23;;
14276;SDS011;7222;57.346;12.150;2022-08-04T04:36:37;6.80;;;4.60;;
14276;SDS011;7222;57.346;12.150;2022-08-04T04:39:16;7.00;;;4.67;;
14276;SDS011;7222;57.346;12.150;2022-08-04T04:42:01;10.30;;;6.13;;
14276;SDS011;7222;57.346;12.150;2022-08-04T04:44:45;7.27;;;5.13;;
14276;SDS011;7222;57.346;12.150;2022-08-04T04:47:39;11.80;;;7.37;;
14276;SDS011;7222;57.346;12.150;2022-08-04T04:50:17;16.77;;;9.60;;
14276;SDS011;7222;57.346;12.150;2022-08-04T04:52:52;14.03;;;8.60;;
14276;SDS011;7222;57.346;12.150;2022-08-04T04:55:23;14.00;;;10.37;;
14276;SDS011;7222;57.346;12.150;2022-08-04T04:57:55;11.63;;;8.93;;
14276;SDS011;7222;57.346;12.150;2022-08-04T05:00:29;13.67;;;9.80;;
14276;SDS011;7222;57.346;12.150;2022-08-04T05:03:15;19.10;;;10.50;;
14276;SDS011;7222;57.346;12.150;2022-08-04T05:05:59;14.80;;;10.00;;
14276;SDS011;7222;57.346;12.150;2022-08-04T05:14:50;11.30;;;8.77;;
14276;SDS011;7222;57.346;12.150;2022-08-04T05:17:21;17.00;;;9.93;;
14276;SDS011;7222;57.346;12.150;2022-08-04T05:19:54;10.43;;;9.17;;
14276;SDS011;7222;57.346;12.150;2022-08-04T05:22:27;16.10;;;10.40;;
14276;SDS011;7222;57.346;12.150;2022-08-04T05:25:01;15.47;;;10.33;;
14276;SDS011;7222;57.346;12.150;2022-08-04T05:27:34;18.13;;;10.33;;
14276;SDS011;7222;57.346;12.150;2022-08-04T05:30:04;17.10;;;10.33;;
14276;SDS011;7222;57.346;12.150;2022-08-04T05:32:37;9.97;;;8.20;;
14276;SDS011;7222;57.346;12.150;2022-08-04T05:35:11;14.43;;;10.70;;
14276;SDS011;7222;57.346;12.150;2022-08-04T05:37:42;12.70;;;8.60;;
14276;SDS011;7222;57.346;12.150;2022-08-04T05:40:12;9.10;;;7.00;;
14276;SDS011;7222;57.346;12.150;2022-08-04T05:42:42;14.43;;;8.07;;
14276;SDS011;7222;57.346;12.150;2022-08-04T05:45:10;18.10;;;9.97;;
14276;SDS011;7222;57.346;12.150;2022-08-04T05:47:40;16.73;;;9.87;;
14276;SDS011;7222;57.346;12.150;2022-08-04T05:50:09;17.30;;;10.33;;
14276;SDS011;7222;57.346;12.150;2022-08-04T05:52:36;13.73;;;8.40;;
14276;SDS011;7222;57.346;12.150;2022-08-04T05:55:05;9.87;;;7.60;;
14276;SDS011;7222;57.346;12.150;2022-08-04T05:57:34;10.73;;;8.20;;
14276;SDS011;7222;57.346;12.150;2022-08-04T06:00:04;11.57;;;7.37;;
14276;SDS011;7222;57.346;12.150;2022-08-04T06:02:33;15.27;;;7.60;;
14276;SDS011;7222;57.346;12.150;2022-08-04T06:05:04;14.43;;;7.67;;
14276;SDS011;7222;57.346;12.150;2022-08-04T06:07:33;12.93;;;7.80;;
14276;SDS011;7222;57.346;12.150;2022-08-04T06:10:01;11.90;;;7.30;;
14276;SDS011;7222;57.346;12.150;2022-08-04T06:12:29;12.73;;;6.70;;
14276;SDS011;7222;57.346;12.150;2022-08-04T06:15:02;9.10;;;5.83;;
14276;SDS011;7222;57.346;12.150;2022-08-04T06:17:32;9.27;;;5.60;;
14276;SDS011;7222;57.346;12.150;2022-08-04T06:20:05;7.43;;;5.07;;
14276;SDS011;7222;57.346;12.150;2022-08-04T06:22:34;12.97;;;5.93;;
14276;SDS011;7222;57.346;12.150;2022-08-04T06:25:07;7.97;;;5.77;;
14276;SDS011;7222;57.346;12.150;2022-08-04T06:27:37;8.43;;;5.20;;
14276;SDS011;7222;57.346;12.150;2022-08-04T06:30:06;9.53;;;5.77;;
14276;SDS011;7222;57.346;12.150;2022-08-04T06:32:38;6.93;;;4.63;;
14276;SDS011;7222;57.346;12.150;2022-08-04T06:35:15;8.57;;;5.03;;
14276;SDS011;7222;57.346;12.150;2022-08-04T06:37:43;9.03;;;4.73;;
14276;SDS011;7222;57.346;12.150;2022-08-04T06:40:12;5.90;;;4.07;;
14276;SDS011;7222;57.346;12.150;2022-08-04T06:42:41;6.57;;;4.43;;
14276;SDS011;7222;57.346;12.150;2022-08-04T06:45:09;7.00;;;3.87;;
14276;SDS011;7222;57.346;12.150;2022-08-04T06:47:38;8.97;;;4.23;;
14276;SDS011;7222;57.346;12.150;2022-08-04T06:50:07;7.80;;;3.83;;
14276;SDS011;7222;57.346;12.150;2022-08-04T06:52:37;5.43;;;4.30;;
14276;SDS011;7222;57.346;12.150;2022-08-04T06:55:05;5.27;;;3.90;;
14276;SDS011;7222;57.346;12.150;2022-08-04T06:57:33;5.90;;;3.90;;
14276;SDS011;7222;57.346;12.150;2022-08-04T07:00:04;5.93;;;3.43;;
14276;SDS011;7222;57.346;12.150;2022-08-04T07:02:37;5.33;;;4.03;;
14276;SDS011;7222;57.346;12.150;2022-08-04T07:05:07;5.60;;;3.90;;
14276;SDS011;7222;57.346;12.150;2022-08-04T07:07:38;5.20;;;4.10;;
14276;SDS011;7222;57.346;12.150;2022-08-04T07:10:06;4.73;;;3.70;;
14276;SDS011;7222;57.346;12.150;2022-08-04T07:12:34;4.87;;;3.70;;
14276;SDS011;7222;57.346;12.150;2022-08-04T07:15:02;6.30;;;3.60;;
14276;SDS011;7222;57.346;12.150;2022-08-04T07:17:30;8.10;;;3.63;;
14276;SDS011;7222;57.346;12.150;2022-08-04T07:19:58;6.07;;;3.77;;
14276;SDS011;7222;57.346;12.150;2022-08-04T07:22:26;4.67;;;3.40;;
14276;SDS011;7222;57.346;12.150;2022-08-04T07:24:56;6.90;;;3.60;;
14276;SDS011;7222;57.346;12.150;2022-08-04T07:27:24;5.23;;;3.87;;
14276;SDS011;7222;57.346;12.150;2022-08-04T07:29:52;6.93;;;3.97;;
14276;SDS011;7222;57.346;12.150;2022-08-04T07:32:20;8.07;;;4.67;;
14276;SDS011;7222;57.346;12.150;2022-08-04T07:34:48;5.63;;;3.87;;
14276;SDS011;7222;57.346;12.150;2022-08-04T07:37:16;5.20;;;3.60;;
14276;SDS011;7222;57.346;12.150;2022-08-04T07:39:44;4.47;;;3.53;;
14276;SDS011;7222;57.346;12.150;2022-08-04T07:42:12;4.87;;;3.70;;
14276;SDS011;7222;57.346;12.150;2022-08-04T07:44:43;6.50;;;3.87;;
14276;SDS011;7222;57.346;12.150;2022-08-04T07:47:11;6.47;;;3.60;;
14276;SDS011;7222;57.346;12.150;2022-08-04T07:49:39;7.53;;;3.80;;
14276;SDS011;7222;57.346;12.150;2022-08-04T07:52:07;4.80;;;3.57;;
14276;SDS011;7222;57.346;12.150;2022-08-04T07:54:34;5.83;;;3.97;;
14276;SDS011;7222;57.346;12.150;2022-08-04T07:57:02;6.73;;;3.80;;
14276;SDS011;7222;57.346;12.150;2022-08-04T07:59:30;7.63;;;3.90;;
14276;SDS011;7222;57.346;12.150;2022-08-04T08:01:58;6.07;;;3.63;;
14276;SDS011;7222;57.346;12.150;2022-08-04T08:04:27;7.50;;;4.60;;
14276;SDS011;7222;57.346;12.150;2022-08-04T08:06:55;6.37;;;3.67;;
14276;SDS011;7222;57.346;12.150;2022-08-04T08:09:23;5.43;;;3.70;;
14276;SDS011;7222;57.346;12.150;2022-08-04T08:11:51;4.50;;;3.77;;
14276;SDS011;7222;57.346;12.150;2022-08-04T08:14:18;7.67;;;3.80;;
14276;SDS011;7222;57.346;12.150;2022-08-04T08:16:47;4.37;;;3.50;;
14276;SDS011;7222;57.346;12.150;2022-08-04T08:19:14;5.90;;;3.63;;
14276;SDS011;7222;57.346;12.150;2022-08-04T08:21:44;5.90;;;3.73;;
14276;SDS011;7222;57.346;12.150;2022-08-04T08:24:12;7.20;;;4.57;;
14276;SDS011;7222;57.346;12.150;2022-08-04T08:26:40;5.23;;;4.03;;
14276;SDS011;7222;57.346;12.150;2022-08-04T08:29:07;5.67;;;3.63;;
14276;SDS011;7222;57.346;12.150;2022-08-04T08:31:34;6.70;;;4.30;;
14276;SDS011;7222;57.346;12.150;2022-08-04T08:34:03;6.17;;;4.33;;
14276;SDS011;7222;57.346;12.150;2022-08-04T08:36:32;10.00;;;4.67;;
14276;SDS011;7222;57.346;12.150;2022-08-04T08:39:04;7.73;;;4.50;;
14276;SDS011;7222;57.346;12.150;2022-08-04T08:41:48;9.17;;;4.90;;
14276;SDS011;7222;57.346;12.150;2022-08-04T08:47:32;8.07;;;5.43;;
14276;SDS011;7222;57.346;12.150;2022-08-04T08:50:25;8.93;;;5.40;;
14276;SDS011;7222;57.346;12.150;2022-08-04T08:53:17;5.40;;;3.80;;
14276;SDS011;7222;57.346;12.150;2022-08-04T08:58:46;8.87;;;4.90;;
14276;SDS011;7222;57.346;12.150;2022-08-04T09:01:30;7.60;;;5.10;;
14276;SDS011;7222;57.346;12.150;2022-08-04T09:04:33;11.60;;;4.90;;
14276;SDS011;7222;57.346;12.150;2022-08-04T09:10:17;6.37;;;4.60;;
14276;SDS011;7222;57.346;12.150;2022-08-04T09:12:49;9.80;;;4.40;;
14276;SDS011;7222;57.346;12.150;2022-08-04T09:15:21;9.87;;;4.60;;
14276;SDS011;7222;57.346;12.150;2022-08-04T09:17:56;8.63;;;4.43;;
14276;SDS011;7222;57.346;12.150;2022-08-04T09:20:30;9.47;;;4.60;;
14276;SDS011;7222;57.346;12.150;2022-08-04T09:23:11;6.97;;;3.80;;
14276;SDS011;7222;57.346;12.150;2022-08-04T09:25:46;7.87;;;4.60;;
14276;SDS011;7222;57.346;12.150;2022-08-04T09:28:18;9.17;;;4.03;;
14276;SDS011;7222;57.346;12.150;2022-08-04T09:30:51;7.50;;;3.90;;
14276;SDS011;7222;57.346;12.150;2022-08-04T09:33:27;6.90;;;3.90;;
14276;SDS011;7222;57.346;12.150;2022-08-04T09:36:02;6.23;;;3.90;;
14276;SDS011;7222;57.346;12.150;2022-08-04T09:38:34;6.97;;;3.30;;
14276;SDS011;7222;57.346;12.150;2022-08-04T09:41:12;7.13;;;3.40;;
14276;SDS011;7222;57.346;12.150;2022-08-04T09:43:53;5.40;;;3.30;;
14276;SDS011;7222;57.346;12.150;2022-08-04T09:46:29;8.63;;;4.00;;
14276;SDS011;7222;57.346;12.150;2022-08-04T09:49:04;7.90;;;3.23;;
14276;SDS011;7222;57.346;12.150;2022-08-04T09:51:48;4.97;;;3.07;;
14276;SDS011;7222;57.346;12.150;2022-08-04T09:54:26;6.87;;;3.10;;
14276;SDS011;7222;57.346;12.150;2022-08-04T09:57:06;5.53;;;3.40;;
14276;SDS011;7222;57.346;12.150;2022-08-04T09:59:42;5.97;;;3.50;;
14276;SDS011;7222;57.346;12.150;2022-08-04T10:02:23;8.97;;;3.67;;
14276;SDS011;7222;57.346;12.150;2022-08-04T10:04:54;8.50;;;3.97;;
14276;SDS011;7222;57.346;12.150;2022-08-04T10:07:28;8.83;;;4.67;;
14276;SDS011;7222;57.346;12.150;2022-08-04T10:10:12;8.00;;;4.70;;
14276;SDS011;7222;57.346;12.150;2022-08-04T10:12:51;9.90;;;4.67;;
14276;SDS011;7222;57.346;12.150;2022-08-04T10:15:39;9.73;;;5.30;;
14276;SDS011;7222;57.346;12.150;2022-08-04T10:18:16;10.23;;;5.07;;
14276;SDS011;7222;57.346;12.150;2022-08-04T10:20:55;8.63;;;5.20;;
14276;SDS011;7222;57.346;12.150;2022-08-04T10:23:33;10.17;;;5.40;;
14276;SDS011;7222;57.346;12.150;2022-08-04T10:26:09;8.63;;;5.30;;
14276;SDS011;7222;57.346;12.150;2022-08-04T10:28:48;10.70;;;5.73;;
14276;SDS011;7222;57.346;12.150;2022-08-04T10:31:21;10.30;;;5.37;;
14276;SDS011;7222;57.346;12.150;2022-08-04T10:33:53;11.93;;;5.37;;
14276;SDS011;7222;57.346;12.150;2022-08-04T10:36:26;10.23;;;5.33;;
14276;SDS011;7222;57.346;12.150;2022-08-04T10:39:00;7.33;;;4.90;;
14276;SDS011;7222;57.346;12.150;2022-08-04T10:41:34;13.83;;;5.17;;
14276;SDS011;7222;57.346;12.150;2022-08-04T10:44:15;11.13;;;4.97;;
14276;SDS011;7222;57.346;12.150;2022-08-04T10:46:50;8.23;;;4.77;;
14276;SDS011;7222;57.346;12.150;2022-08-04T10:49:21;9.30;;;4.43;;
14276;SDS011;7222;57.346;12.150;2022-08-04T10:51:50;10.00;;;5.70;;
14276;SDS011;7222;57.346;12.150;2022-08-04T10:57:10;10.67;;;4.83;;
14276;SDS011;7222;57.346;12.150;2022-08-04T10:59:44;12.93;;;4.83;;
14276;SDS011;7222;57.346;12.150;2022-08-04T11:02:21;11.10;;;4.40;;
14276;SDS011;7222;57.346;12.150;2022-08-04T11:04:57;7.27;;;3.63;;
14276;SDS011;7222;57.346;12.150;2022-08-04T11:07:29;8.40;;;3.70;;
14276;SDS011;7222;57.346;12.150;2022-08-04T11:09:58;9.57;;;4.07;;
14276;SDS011;7222;57.346;12.150;2022-08-04T11:12:26;7.70;;;3.90;;
14276;SDS011;7222;57.346;12.150;2022-08-04T11:14:57;8.87;;;3.80;;
14276;SDS011;7222;57.346;12.150;2022-08-04T11:17:30;7.93;;;3.90;;
14276;SDS011;7222;57.346;12.150;2022-08-04T11:20:02;6.87;;;3.30;;
14276;SDS011;7222;57.346;12.150;2022-08-04T11:22:38;7.97;;;3.60;;
14276;SDS011;7222;57.346;12.150;2022-08-04T11:25:11;6.80;;;3.77;;
14276;SDS011;7222;57.346;12.150;2022-08-04T11:27:46;9.43;;;4.07;;
14276;SDS011;7222;57.346;12.150;2022-08-04T11:30:23;12.23;;;4.20;;
14276;SDS011;7222;57.346;12.150;2022-08-04T11:32:57;8.30;;;4.00;;
14276;SDS011;7222;57.346;12.150;2022-08-04T11:35:31;9.60;;;3.57;;
14276;SDS011;7222;57.346;12.150;2022-08-04T11:38:05;7.70;;;3.90;;
14276;SDS011;7222;57.346;12.150;2022-08-04T11:40:39;8.20;;;4.40;;
14276;SDS011;7222;57.346;12.150;2022-08-04T11:43:09;8.27;;;3.70;;
14276;SDS011;7222;57.346;12.150;2022-08-04T11:45:46;7.77;;;3.50;;
14276;SDS011;7222;57.346;12.150;2022-08-04T11:48:22;4.30;;;3.20;;
14276;SDS011;7222;57.346;12.150;2022-08-04T11:50:55;10.50;;;4.20;;
14276;SDS011;7222;57.346;12.150;2022-08-04T11:53:26;6.23;;;3.60;;
14276;SDS011;7222;57.346;12.150;2022-08-04T11:55:57;6.87;;;3.60;;
14276;SDS011;7222;57.346;12.150;2022-08-04T11:58:27;8.83;;;4.07;;
14276;SDS011;7222;57.346;12.150;2022-08-04T12:01:00;5.23;;;3.37;;
14276;SDS011;7222;57.346;12.150;2022-08-04T12:03:35;7.17;;;3.73;;
14276;SDS011;7222;57.346;12.150;2022-08-04T12:06:12;8.50;;;3.87;;
14276;SDS011;7222;57.346;12.150;2022-08-04T12:08:50;5.37;;;3.60;;
14276;SDS011;7222;57.346;12.150;2022-08-04T12:11:27;8.57;;;3.50;;
14276;SDS011;7222;57.346;12.150;2022-08-04T12:14:09;6.77;;;3.30;;
14276;SDS011;7222;57.346;12.150;2022-08-04T12:16:51;7.23;;;3.63;;
14276;SDS011;7222;57.346;12.150;2022-08-04T12:19:28;5.87;;;3.77;;
14276;SDS011;7222;57.346;12.150;2022-08-04T12:21:58;8.47;;;3.90;;
14276;SDS011;7222;57.346;12.150;2022-08-04T12:24:31;6.47;;;3.80;;
14276;SDS011;7222;57.346;12.150;2022-08-04T12:27:03;6.57;;;3.47;;
14276;SDS011;7222;57.346;12.150;2022-08-04T12:29:33;6.73;;;3.40;;
14276;SDS011;7222;57.346;12.150;2022-08-04T12:32:10;6.87;;;3.43;;
14276;SDS011;7222;57.346;12.150;2022-08-04T12:34:45;6.20;;;3.17;;
14276;SDS011;7222;57.346;12.150;2022-08-04T12:37:22;3.50;;;2.63;;
14276;SDS011;7222;57.346;12.150;2022-08-04T12:40:00;5.67;;;3.23;;
14276;SDS011;7222;57.346;12.150;2022-08-04T12:42:33;6.50;;;3.17;;
14276;SDS011;7222;57.346;12.150;2022-08-04T12:45:07;5.13;;;3.27;;
14276;SDS011;7222;57.346;12.150;2022-08-04T12:47:37;5.53;;;3.00;;
14276;SDS011;7222;57.346;12.150;2022-08-04T12:50:06;5.27;;;3.50;;
14276;SDS011;7222;57.346;12.150;2022-08-04T12:52:40;8.27;;;3.47;;
14276;SDS011;7222;57.346;12.150;2022-08-04T12:55:08;6.73;;;3.23;;
14276;SDS011;7222;57.346;12.150;2022-08-04T12:57:36;8.02;;;3.38;;
14276;SDS011;7222;57.346;12.150;2022-08-04T13:00:06;6.10;;;3.13;;
14276;SDS011;7222;57.346;12.150;2022-08-04T13:02:36;3.43;;;2.70;;
14276;SDS011;7222;57.346;12.150;2022-08-04T13:05:08;6.33;;;2.80;;
14276;SDS011;7222;57.346;12.150;2022-08-04T13:07:39;4.40;;;2.83;;
14276;SDS011;7222;57.346;12.150;2022-08-04T13:10:11;5.67;;;3.03;;
14276;SDS011;7222;57.346;12.150;2022-08-04T13:12:39;3.50;;;2.20;;
14276;SDS011;7222;57.346;12.150;2022-08-04T13:15:10;5.10;;;2.33;;
14276;SDS011;7222;57.346;12.150;2022-08-04T13:17:50;4.82;;;2.80;;
14276;SDS011;7222;57.346;12.150;2022-08-04T13:20:25;5.57;;;2.73;;
14276;SDS011;7222;57.346;12.150;2022-08-04T13:22:58;5.95;;;2.60;;
14276;SDS011;7222;57.346;12.150;2022-08-04T13:25:28;5.37;;;2.47;;
14276;SDS011;7222;57.346;12.150;2022-08-04T13:27:56;5.30;;;2.67;;
14276;SDS011;7222;57.346;12.150;2022-08-04T13:30:26;5.00;;;2.50;;
14276;SDS011;7222;57.346;12.150;2022-08-04T13:33:00;3.70;;;2.20;;
14276;SDS011;7222;57.346;12.150;2022-08-04T13:35:28;6.23;;;3.00;;
14276;SDS011;7222;57.346;12.150;2022-08-04T13:37:58;3.90;;;2.73;;
14276;SDS011;7222;57.346;12.150;2022-08-04T13:40:27;4.57;;;2.40;;
14276;SDS011;7222;57.346;12.150;2022-08-04T13:42:54;4.27;;;2.20;;
14276;SDS011;7222;57.346;12.150;2022-08-04T13:45:22;4.10;;;2.23;;
14276;SDS011;7222;57.346;12.150;2022-08-04T13:47:50;3.13;;;2.33;;
14276;SDS011;7222;57.346;12.150;2022-08-04T13:50:25;5.17;;;2.27;;
14276;SDS011;7222;57.346;12.150;2022-08-04T13:52:55;4.13;;;2.70;;
14276;SDS011;7222;57.346;12.150;2022-08-04T13:55:24;3.97;;;2.90;;
14276;SDS011;7222;57.346;12.150;2022-08-04T13:58:04;4.97;;;2.67;;
14276;SDS011;7222;57.346;12.150;2022-08-04T14:00:41;3.37;;;2.47;;
14276;SDS011;7222;57.346;12.150;2022-08-04T14:03:17;7.07;;;3.00;;
14276;SDS011;7222;57.346;12.150;2022-08-04T14:08:50;5.77;;;2.50;;
14276;SDS011;7222;57.346;12.150;2022-08-04T14:11:20;4.97;;;2.40;;
14276;SDS011;7222;57.346;12.150;2022-08-04T14:13:48;5.23;;;2.37;;
14276;SDS011;7222;57.346;12.150;2022-08-04T14:16:17;2.50;;;2.30;;
14276;SDS011;7222;57.346;12.150;2022-08-04T14:18:46;4.30;;;2.30;;
14276;SDS011;7222;57.346;12.150;2022-08-04T14:21:22;3.90;;;2.80;;
14276;SDS011;7222;57.346;12.150;2022-08-04T14:23:50;4.70;;;2.53;;
14276;SDS011;7222;57.346;12.150;2022-08-04T14:26:20;9.43;;;3.77;;
14276;SDS011;7222;57.346;12.150;2022-08-04T14:28:49;6.17;;;2.90;;
14276;SDS011;7222;57.346;12.150;2022-08-04T14:31:17;9.60;;;3.90;;
14276;SDS011;7222;57.346;12.150;2022-08-04T14:33:47;8.20;;;4.00;;
14276;SDS011;7222;57.346;12.150;2022-08-04T14:36:16;9.23;;;4.00;;
14276;SDS011;7222;57.346;12.150;2022-08-04T14:38:46;12.33;;;4.40;;
14276;SDS011;7222;57.346;12.150;2022-08-04T14:41:18;7.50;;;3.23;;
14276;SDS011;7222;57.346;12.150;2022-08-04T14:43:48;8.30;;;3.63;;
14276;SDS011;7222;57.346;12.150;2022-08-04T14:46:17;8.80;;;3.60;;
14276;SDS011;7222;57.346;12.150;2022-08-04T14:49:05;8.47;;;3.53;;
14276;SDS011;7222;57.346;12.150;2022-08-04T14:51:34;9.77;;;3.47;;
14276;SDS011;7222;57.346;12.150;2022-08-04T14:54:04;9.50;;;3.80;;
14276;SDS011;7222;57.346;12.150;2022-08-04T14:56:32;8.17;;;3.73;;
14276;SDS011;7222;57.346;12.150;2022-08-04T14:58:59;6.70;;;3.13;;
14276;SDS011;7222;57.346;12.150;2022-08-04T15:01:28;7.30;;;2.83;;
14276;SDS011;7222;57.346;12.150;2022-08-04T15:03:56;9.63;;;3.33;;
14276;SDS011;7222;57.346;12.150;2022-08-04T15:06:27;8.57;;;2.83;;
14276;SDS011;7222;57.346;12.150;2022-08-04T15:08:57;6.83;;;2.87;;
14276;SDS011;7222;57.346;12.150;2022-08-04T15:11:25;5.70;;;2.70;;
14276;SDS011;7222;57.346;12.150;2022-08-04T15:13:53;6.30;;;2.97;;
14276;SDS011;7222;57.346;12.150;2022-08-04T15:16:22;7.50;;;3.00;;
14276;SDS011;7222;57.346;12.150;2022-08-04T15:18:51;5.53;;;2.67;;
14276;SDS011;7222;57.346;12.150;2022-08-04T15:21:19;6.87;;;2.53;;
14276;SDS011;7222;57.346;12.150;2022-08-04T15:23:48;4.07;;;2.47;;
14276;SDS011;7222;57.346;12.150;2022-08-04T15:26:16;5.50;;;2.10;;
14276;SDS011;7222;57.346;12.150;2022-08-04T15:28:49;3.80;;;2.10;;
14276;SDS011;7222;57.346;12.150;2022-08-04T15:31:19;4.23;;;2.37;;
14276;SDS011;7222;57.346;12.150;2022-08-04T15:33:47;2.57;;;1.73;;
14276;SDS011;7222;57.346;12.150;2022-08-04T15:36:21;3.77;;;2.03;;
14276;SDS011;7222;57.346;12.150;2022-08-04T15:38:59;2.90;;;1.83;;
14276;SDS011;7222;57.346;12.150;2022-08-04T15:41:34;6.40;;;2.17;;
14276;SDS011;7222;57.346;12.150;2022-08-04T15:44:16;4.37;;;2.03;;
14276;SDS011;7222;57.346;12.150;2022-08-04T15:49:42;4.20;;;1.77;;
14276;SDS011;7222;57.346;12.150;2022-08-04T15:52:10;4.37;;;1.80;;
14276;SDS011;7222;57.346;12.150;2022-08-04T15:54:41;4.60;;;1.73;;
14276;SDS011;7222;57.346;12.150;2022-08-04T15:57:08;4.87;;;1.97;;
14276;SDS011;7222;57.346;12.150;2022-08-04T16:05:30;4.47;;;2.10;;
14276;SDS011;7222;57.346;12.150;2022-08-04T16:08:15;4.90;;;1.90;;
14276;SDS011;7222;57.346;12.150;2022-08-04T16:10:46;4.30;;;1.97;;
14276;SDS011;7222;57.346;12.150;2022-08-04T16:13:15;5.60;;;2.10;;
14276;SDS011;7222;57.346;12.150;2022-08-04T16:15:50;8.33;;;2.43;;
14276;SDS011;7222;57.346;12.150;2022-08-04T16:21:05;4.77;;;1.77;;
14276;SDS011;7222;57.346;12.150;2022-08-04T16:26:46;5.57;;;2.37;;
14276;SDS011;7222;57.346;12.150;2022-08-04T16:29:26;8.87;;;2.47;;
14276;SDS011;7222;57.346;12.150;2022-08-04T16:32:07;4.70;;;2.37;;
14276;SDS011;7222;57.346;12.150;2022-08-04T16:34:36;8.40;;;3.00;;
14276;SDS011;7222;57.346;12.150;2022-08-04T16:37:04;4.80;;;2.40;;
14276;SDS011;7222;57.346;12.150;2022-08-04T16:39:34;5.93;;;2.43;;
14276;SDS011;7222;57.346;12.150;2022-08-04T16:45:00;5.00;;;2.00;;
14276;SDS011;7222;57.346;12.150;2022-08-04T16:50:32;4.30;;;2.30;;
14276;SDS011;7222;57.346;12.150;2022-08-04T16:53:09;4.93;;;1.90;;
14276;SDS011;7222;57.346;12.150;2022-08-04T16:55:38;9.00;;;2.43;;
14276;SDS011;7222;57.346;12.150;2022-08-04T16:58:11;7.57;;;2.37;;